sensor_id;sensor_type;location;lat;lon;timestamp;P1;durP1;ratioP1;P2;durP2;ratioP2
14167;SDS011;7163;50.626;12.922;2024-01-15T00:04:51;21.50;;;9.73;;
14167;SDS011;7163;50.626;12.922;2024-01-15T00:09:51;23.37;;;10.43;;
14167;SDS011;7163;50.626;12.922;2024-01-15T00:14:52;23.55;;;10.50;;
14167;SDS011;7163;50.626;12.922;2024-01-15T00:19:52;22.30;;;9.50;;
14167;SDS011;7163;50.626;12.922;2024-01-15T00:24:53;24.53;;;9.73;;
14167;SDS011;7163;50.626;12.922;2024-01-15T01:00:53;19.03;;;10.10;;
14167;SDS011;7163;50.626;12.922;2024-01-15T01:06:04;19.57;;;9.63;;
14167;SDS011;7163;50.626;12.922;2024-01-15T01:11:05;26.90;;;10.93;;
14167;SDS011;7163;50.626;12.922;2024-01-15T01:16:07;25.33;;;10.50;;
14167;SDS011;7163;50.626;12.922;2024-01-15T01:21:07;20.20;;;10.17;;
14167;SDS011;7163;50.626;12.922;2024-01-15T01:26:07;25.95;;;9.77;;
14167;SDS011;7163;50.626;12.922;2024-01-15T01:31:08;29.30;;;10.53;;
14167;SDS011;7163;50.626;12.922;2024-01-15T01:36:09;29.05;;;11.75;;
14167;SDS011;7163;50.626;12.922;2024-01-15T01:41:12;28.00;;;11.50;;
14167;SDS011;7163;50.626;12.922;2024-01-15T01:46:12;27.97;;;11.33;;
14167;SDS011;7163;50.626;12.922;2024-01-15T01:51:13;36.45;;;12.52;;
14167;SDS011;7163;50.626;12.922;2024-01-15T01:56:13;31.27;;;11.90;;
14167;SDS011;7163;50.626;12.922;2024-01-15T02:01:15;29.63;;;12.97;;
14167;SDS011;7163;50.626;12.922;2024-01-15T02:06:15;33.13;;;13.20;;
14167;SDS011;7163;50.626;12.922;2024-01-15T02:11:15;30.20;;;11.63;;
14167;SDS011;7163;50.626;12.922;2024-01-15T02:16:16;30.23;;;11.57;;
14167;SDS011;7163;50.626;12.922;2024-01-15T02:21:22;34.60;;;12.03;;
14167;SDS011;7163;50.626;12.922;2024-01-15T02:26:23;31.53;;;12.87;;
14167;SDS011;7163;50.626;12.922;2024-01-15T02:31:24;38.80;;;14.27;;
14167;SDS011;7163;50.626;12.922;2024-01-15T02:36:27;33.20;;;14.10;;
14167;SDS011;7163;50.626;12.922;2024-01-15T02:41:30;35.60;;;13.10;;
14167;SDS011;7163;50.626;12.922;2024-01-15T02:46:30;46.90;;;13.30;;
14167;SDS011;7163;50.626;12.922;2024-01-15T02:51:30;37.07;;;13.03;;
14167;SDS011;7163;50.626;12.922;2024-01-15T02:56:31;29.13;;;11.45;;
14167;SDS011;7163;50.626;12.922;2024-01-15T03:01:31;39.47;;;13.43;;
14167;SDS011;7163;50.626;12.922;2024-01-15T03:06:31;36.85;;;13.70;;
14167;SDS011;7163;50.626;12.922;2024-01-15T03:11:38;45.87;;;16.00;;
14167;SDS011;7163;50.626;12.922;2024-01-15T03:16:39;41.77;;;14.37;;
14167;SDS011;7163;50.626;12.922;2024-01-15T04:02:59;42.73;;;15.80;;
14167;SDS011;7163;50.626;12.922;2024-01-15T04:08:00;40.67;;;13.73;;
14167;SDS011;7163;50.626;12.922;2024-01-15T04:13:00;46.80;;;15.77;;
14167;SDS011;7163;50.626;12.922;2024-01-15T04:18:02;35.57;;;14.07;;
14167;SDS011;7163;50.626;12.922;2024-01-15T04:23:02;46.03;;;15.20;;
14167;SDS011;7163;50.626;12.922;2024-01-15T04:28:03;37.77;;;13.93;;
14167;SDS011;7163;50.626;12.922;2024-01-15T04:33:03;45.20;;;15.27;;
14167;SDS011;7163;50.626;12.922;2024-01-15T04:38:04;35.53;;;14.70;;
14167;SDS011;7163;50.626;12.922;2024-01-15T04:43:04;30.80;;;13.15;;
14167;SDS011;7163;50.626;12.922;2024-01-15T04:48:04;40.28;;;12.30;;
14167;SDS011;7163;50.626;12.922;2024-01-15T04:53:05;50.87;;;13.53;;
14167;SDS011;7163;50.626;12.922;2024-01-15T04:58:06;43.80;;;13.80;;
14167;SDS011;7163;50.626;12.922;2024-01-15T05:03:07;44.33;;;16.17;;
14167;SDS011;7163;50.626;12.922;2024-01-15T05:08:07;34.90;;;11.67;;
14167;SDS011;7163;50.626;12.922;2024-01-15T05:44:08;28.60;;;11.87;;
14167;SDS011;7163;50.626;12.922;2024-01-15T05:59:32;36.87;;;13.40;;
14167;SDS011;7163;50.626;12.922;2024-01-15T06:25:17;31.80;;;12.67;;
14167;SDS011;7163;50.626;12.922;2024-01-15T06:30:21;36.23;;;14.17;;
14167;SDS011;7163;50.626;12.922;2024-01-15T06:35:21;31.20;;;12.10;;
14167;SDS011;7163;50.626;12.922;2024-01-15T06:40:21;34.33;;;12.15;;
14167;SDS011;7163;50.626;12.922;2024-01-15T06:45:21;33.10;;;13.27;;
14167;SDS011;7163;50.626;12.922;2024-01-15T06:50:22;34.63;;;11.37;;
14167;SDS011;7163;50.626;12.922;2024-01-15T06:55:23;35.40;;;12.10;;
14167;SDS011;7163;50.626;12.922;2024-01-15T07:00:24;29.97;;;11.97;;
14167;SDS011;7163;50.626;12.922;2024-01-15T07:05:24;41.47;;;12.10;;
14167;SDS011;7163;50.626;12.922;2024-01-15T07:10:24;25.33;;;9.65;;
14167;SDS011;7163;50.626;12.922;2024-01-15T07:15:26;25.57;;;10.73;;
14167;SDS011;7163;50.626;12.922;2024-01-15T07:20:26;33.47;;;11.73;;
14167;SDS011;7163;50.626;12.922;2024-01-15T07:25:27;25.27;;;10.70;;
14167;SDS011;7163;50.626;12.922;2024-01-15T08:01:30;27.17;;;10.70;;
14167;SDS011;7163;50.626;12.922;2024-01-15T08:06:30;27.63;;;11.73;;
14167;SDS011;7163;50.626;12.922;2024-01-15T08:11:32;25.13;;;10.27;;
14167;SDS011;7163;50.626;12.922;2024-01-15T08:16:32;22.77;;;10.57;;
14167;SDS011;7163;50.626;12.922;2024-01-15T08:21:32;30.25;;;11.43;;
14167;SDS011;7163;50.626;12.922;2024-01-15T08:26:33;31.00;;;10.73;;
14167;SDS011;7163;50.626;12.922;2024-01-15T08:31:33;29.63;;;11.33;;
14167;SDS011;7163;50.626;12.922;2024-01-15T08:36:34;26.50;;;10.03;;
14167;SDS011;7163;50.626;12.922;2024-01-15T09:12:44;25.00;;;10.67;;
14167;SDS011;7163;50.626;12.922;2024-01-15T09:17:44;32.30;;;10.70;;
14167;SDS011;7163;50.626;12.922;2024-01-15T09:22:46;23.43;;;10.00;;
14167;SDS011;7163;50.626;12.922;2024-01-15T09:27:46;26.77;;;10.03;;
14167;SDS011;7163;50.626;12.922;2024-01-15T09:32:47;24.37;;;9.97;;
14167;SDS011;7163;50.626;12.922;2024-01-15T09:37:47;17.60;;;8.63;;
14167;SDS011;7163;50.626;12.922;2024-01-15T09:42:48;25.53;;;9.60;;
14167;SDS011;7163;50.626;12.922;2024-01-15T09:47:48;23.87;;;9.77;;
14167;SDS011;7163;50.626;12.922;2024-01-15T11:08:12;13.60;;;6.40;;
14167;SDS011;7163;50.626;12.922;2024-01-15T11:13:19;12.37;;;6.27;;
14167;SDS011;7163;50.626;12.922;2024-01-15T11:18:25;11.70;;;5.90;;
14167;SDS011;7163;50.626;12.922;2024-01-15T11:28:48;11.67;;;6.13;;
14167;SDS011;7163;50.626;12.922;2024-01-15T12:04:49;14.17;;;7.10;;
14167;SDS011;7163;50.626;12.922;2024-01-15T12:15:01;14.27;;;6.43;;
14167;SDS011;7163;50.626;12.922;2024-01-15T12:25:18;12.10;;;6.77;;
14167;SDS011;7163;50.626;12.922;2024-01-15T12:30:21;13.47;;;7.00;;
14167;SDS011;7163;50.626;12.922;2024-01-15T12:35:32;20.67;;;10.17;;
14167;SDS011;7163;50.626;12.922;2024-01-15T12:40:39;18.30;;;7.43;;
14167;SDS011;7163;50.626;12.922;2024-01-15T15:46:59;18.20;;;9.50;;
14167;SDS011;7163;50.626;12.922;2024-01-15T15:52:00;19.83;;;10.30;;
14167;SDS011;7163;50.626;12.922;2024-01-15T15:57:00;18.20;;;9.87;;
14167;SDS011;7163;50.626;12.922;2024-01-15T16:02:01;23.13;;;11.50;;
14167;SDS011;7163;50.626;12.922;2024-01-15T16:07:02;21.97;;;11.63;;
14167;SDS011;7163;50.626;12.922;2024-01-15T16:12:03;26.90;;;12.23;;
14167;SDS011;7163;50.626;12.922;2024-01-15T16:17:04;22.43;;;10.53;;
14167;SDS011;7163;50.626;12.922;2024-01-15T16:22:05;21.73;;;11.13;;
14167;SDS011;7163;50.626;12.922;2024-01-15T16:27:07;23.40;;;11.70;;
14167;SDS011;7163;50.626;12.922;2024-01-15T16:32:07;28.02;;;12.95;;
14167;SDS011;7163;50.626;12.922;2024-01-15T16:37:07;37.30;;;16.85;;
14167;SDS011;7163;50.626;12.922;2024-01-15T16:42:09;26.87;;;12.90;;
14167;SDS011;7163;50.626;12.922;2024-01-15T16:47:13;23.00;;;10.90;;
14167;SDS011;7163;50.626;12.922;2024-01-15T16:52:13;25.83;;;10.77;;
14167;SDS011;7163;50.626;12.922;2024-01-15T16:57:14;21.97;;;10.40;;
14167;SDS011;7163;50.626;12.922;2024-01-15T17:02:14;17.27;;;9.23;;
14167;SDS011;7163;50.626;12.922;2024-01-15T17:07:15;17.23;;;9.83;;
14167;SDS011;7163;50.626;12.922;2024-01-15T17:12:15;21.83;;;11.97;;
14167;SDS011;7163;50.626;12.922;2024-01-15T17:17:16;17.13;;;9.33;;
14167;SDS011;7163;50.626;12.922;2024-01-15T17:22:16;19.37;;;10.93;;
14167;SDS011;7163;50.626;12.922;2024-01-15T17:27:16;28.67;;;13.97;;
14167;SDS011;7163;50.626;12.922;2024-01-15T18:03:17;21.17;;;9.23;;
14167;SDS011;7163;50.626;12.922;2024-01-15T18:08:18;17.53;;;8.23;;
14167;SDS011;7163;50.626;12.922;2024-01-15T18:13:18;15.93;;;7.53;;
14167;SDS011;7163;50.626;12.922;2024-01-15T18:18:18;11.50;;;6.37;;
14167;SDS011;7163;50.626;12.922;2024-01-15T18:23:19;18.63;;;6.38;;
14167;SDS011;7163;50.626;12.922;2024-01-15T18:28:19;8.77;;;4.60;;
14167;SDS011;7163;50.626;12.922;2024-01-15T18:33:25;10.40;;;4.60;;
14167;SDS011;7163;50.626;12.922;2024-01-15T18:38:29;5.97;;;4.43;;
14167;SDS011;7163;50.626;12.922;2024-01-15T23:46:37;1.93;;;1.87;;
14167;SDS011;7163;50.626;12.922;2024-01-15T23:51:37;2.45;;;2.35;;
14167;SDS011;7163;50.626;12.922;2024-01-15T23:56:38;1.70;;;1.70;;
